KROW/ROW METAR and TAF weather

Enter ICAO airport designator
Station Type Date Time Source
KROW METAR 2019/10/23 06:51 UTC NOAA

KROW 230651Z 18003KT 10SM CLR 09/M02 A3002 RMK AO2 SLP127 T00891022 402280067 $


Station Type Date Time Source
KROW Decoded METAR 2019/10/23 06:51 UTC NOAA

ROSWELL INDUSTRIAL AIR CENTR, NM, United States (KROW) 33-18N 104-32W 1112M
Oct 23, 2019 - 02:51 AM EDT / 2019.10.23 0651 UTC
Wind: from the S (180 degrees) at 3 MPH (3 KT):0
Visibility: 10 mile(s):0
Sky conditions: clear
Temperature: 48.0 F (8.9 C)
Dew Point: 28.0 F (-2.2 C)
Relative Humidity: 45%
Pressure (altimeter): 30.02 in. Hg (1016 hPa)
ob: KROW 230651Z 18003KT 10SM CLR 09/M02 A3002 RMK AO2 SLP127 T00891022 402280067
cycle: 7

Station Type Date Time Source
KROW TAF 2019/10/23 06:36 UTC NOAA

TAF KROW 230532Z 2306/2406 22007KT P6SM SKC
FM231200 26007KT P6SM SKC
FM231800 01007KT P6SM SKC
FM232200 08007KT P6SM SKC
FM240400 01012KT P6SM SCT050

Example: see airport list